Time;durP1;ratioP1;P1;durP2;ratioP2;P2;SDS_P1;SDS_P2;PMS_P1;PMS_P2;Temp;Humidity;BMP_temperature;BMP_pressure;BME280_temperature;BME280_humidity;BME280_pressure;Samples;Min_cycle;Max_cycle;Signal;HPM_P1;HPM_P2
2021/12/15 00:00:06;;;;;;;90.50;20.33;;;;;;;;;;5053132;28;20229;-66
2021/12/15 00:02:33;;;;;;;83.35;16.45;;;;;;;;;;5053230;28;20205;-65
2021/12/15 00:05:01;;;;;;;86.75;18.48;;;;;;;;;;5052739;28;20671;-65
2021/12/15 00:07:29;;;;;;;87.72;18.75;;;;;;;;;;5052374;28;20263;-64
2021/12/15 00:09:56;;;;;;;87.53;20.17;;;;;;;;;;5052989;28;20222;-66
2021/12/15 00:12:25;;;;;;;83.97;17.55;;;;;;;;;;5052812;28;20235;-66
2021/12/15 00:14:52;;;;;;;87.53;18.63;;;;;;;;;;5052008;28;20249;-66
2021/12/15 00:17:19;;;;;;;89.50;19.50;;;;;;;;;;5052202;28;20696;-65
2021/12/15 00:19:46;;;;;;;87.43;19.02;;;;;;;;;;5052526;28;20237;-66
2021/12/15 00:22:14;;;;;;;88.38;19.52;;;;;;;;;;5052448;28;20205;-66
2021/12/15 00:24:41;;;;;;;92.22;18.17;;;;;;;;;;5052727;28;20203;-65
2021/12/15 00:27:08;;;;;;;86.45;16.25;;;;;;;;;;5052456;28;20211;-66
2021/12/15 00:29:37;;;;;;;83.05;17.17;;;;;;;;;;5052509;28;20228;-65
2021/12/15 00:32:04;;;;;;;86.38;16.75;;;;;;;;;;5052494;28;20238;-66
2021/12/15 00:34:33;;;;;;;85.20;17.13;;;;;;;;;;5052367;28;20218;-65
2021/12/15 00:37:00;;;;;;;81.97;16.55;;;;;;;;;;5051375;28;20225;-66
2021/12/15 00:39:29;;;;;;;79.70;15.47;;;;;;;;;;5052186;28;20249;-65
2021/12/15 00:41:56;;;;;;;83.50;15.55;;;;;;;;;;5052524;28;20823;-66
2021/12/15 00:44:24;;;;;;;84.43;16.52;;;;;;;;;;5052314;28;20203;-65
2021/12/15 00:46:52;;;;;;;80.95;16.77;;;;;;;;;;5051595;28;20205;-64
2021/12/15 00:49:20;;;;;;;84.22;18.48;;;;;;;;;;5052082;28;20229;-65
2021/12/15 00:51:47;;;;;;;83.07;15.93;;;;;;;;;;5051653;28;20216;-66
2021/12/15 00:54:15;;;;;;;86.85;16.13;;;;;;;;;;5051866;28;20719;-65
2021/12/15 00:56:43;;;;;;;81.07;15.03;;;;;;;;;;5051823;28;20702;-66
2021/12/15 00:59:11;;;;;;;86.22;16.65;;;;;;;;;;5051849;28;20477;-65
2021/12/15 01:01:39;;;;;;;81.38;15.75;;;;;;;;;;5051945;28;20206;-65
2021/12/15 01:04:07;;;;;;;80.32;15.32;;;;;;;;;;5051820;28;20298;-66
2021/12/15 01:06:35;;;;;;;85.65;16.15;;;;;;;;;;5051409;28;20683;-66
2021/12/15 01:09:05;;;;;;;89.15;18.52;;;;;;;;;;5051536;28;20203;-65
2021/12/15 01:11:49;;;;;;;82.80;16.08;;;;;;;;;;5051894;28;20210;-66
2021/12/15 01:19:46;;;;;;;78.70;15.63;;;;;;;;;;5051748;28;20660;-65
2021/12/15 01:20:12;;;;;;;85.72;16.05;;;;;;;;;;5051323;28;20236;-66
2021/12/15 01:22:40;;;;;;;83.87;16.07;;;;;;;;;;5051748;28;20209;-66
2021/12/15 01:25:09;;;;;;;86.05;17.13;;;;;;;;;;5051772;28;20448;-66
2021/12/15 01:27:36;;;;;;;84.82;16.50;;;;;;;;;;5051519;28;20289;-66
2021/12/15 01:30:04;;;;;;;82.15;17.50;;;;;;;;;;5051648;28;20245;-66
2021/12/15 01:32:31;;;;;;;81.60;15.63;;;;;;;;;;5051356;28;20202;-66
2021/12/15 01:34:58;;;;;;;84.68;17.13;;;;;;;;;;5051537;28;20245;-66
2021/12/15 01:37:27;;;;;;;85.32;17.88;;;;;;;;;;5051024;28;20591;-66
2021/12/15 01:39:55;;;;;;;83.80;17.27;;;;;;;;;;5051348;28;20225;-67
2021/12/15 01:42:23;;;;;;;86.95;17.10;;;;;;;;;;5051659;28;21003;-67
2021/12/15 01:47:34;;;;;;;84.00;18.45;;;;;;;;;;5034125;28;20670;-67
2021/12/15 01:50:02;;;;;;;86.93;17.67;;;;;;;;;;5055483;28;20221;-66
2021/12/15 01:52:32;;;;;;;87.65;17.08;;;;;;;;;;5054923;28;20214;-67
2021/12/15 01:55:00;;;;;;;79.43;16.00;;;;;;;;;;5055375;28;20248;-65
2021/12/15 01:57:29;;;;;;;84.27;16.80;;;;;;;;;;5055170;28;20585;-66
2021/12/15 01:59:56;;;;;;;93.95;18.98;;;;;;;;;;5055137;28;20465;-66
2021/12/15 02:02:24;;;;;;;90.18;19.75;;;;;;;;;;5055221;28;20205;-66
2021/12/15 02:04:51;;;;;;;87.55;18.67;;;;;;;;;;5054931;28;20198;-66
2021/12/15 02:07:19;;;;;;;85.50;19.02;;;;;;;;;;5054842;28;20203;-66
2021/12/15 02:12:37;;;;;;;84.43;16.65;;;;;;;;;;5054668;28;20207;-66
2021/12/15 02:15:13;;;;;;;86.68;17.35;;;;;;;;;;5054867;28;20593;-66
2021/12/15 02:17:40;;;;;;;87.20;18.80;;;;;;;;;;5054828;28;20211;-66
2021/12/15 02:20:09;;;;;;;87.60;17.45;;;;;;;;;;5054636;28;20235;-66
2021/12/15 02:22:38;;;;;;;87.57;18.52;;;;;;;;;;5054716;28;20678;-66
2021/12/15 02:25:08;;;;;;;88.60;18.10;;;;;;;;;;5054959;28;20212;-66
2021/12/15 02:27:35;;;;;;;86.07;16.88;;;;;;;;;;5054825;28;20213;-66
2021/12/15 02:30:18;;;;;;;86.53;18.35;;;;;;;;;;5054480;28;20603;-66
2021/12/15 02:32:57;;;;;;;86.05;18.20;;;;;;;;;;5054788;28;20268;-66
2021/12/15 02:38:10;;;;;;;84.40;17.98;;;;;;;;;;5052503;28;20669;-66
2021/12/15 02:40:38;;;;;;;81.80;17.40;;;;;;;;;;5053275;28;20232;-66
2021/12/15 02:43:06;;;;;;;84.40;18.38;;;;;;;;;;5053267;28;20450;-66
2021/12/15 02:45:34;;;;;;;85.13;17.70;;;;;;;;;;5051500;28;20208;-66
2021/12/15 02:48:01;;;;;;;81.53;15.95;;;;;;;;;;5053000;28;20207;-66
2021/12/15 02:50:29;;;;;;;92.43;18.52;;;;;;;;;;5053227;28;20226;-66
2021/12/15 02:52:58;;;;;;;84.20;18.10;;;;;;;;;;5053119;28;20208;-66
2021/12/15 02:55:27;;;;;;;85.90;18.75;;;;;;;;;;5052698;28;20283;-66
2021/12/15 02:57:54;;;;;;;83.17;17.13;;;;;;;;;;5053030;28;20211;-66
2021/12/15 03:00:24;;;;;;;83.03;17.08;;;;;;;;;;5053320;28;20482;-66
2021/12/15 03:03:26;;;;;;;87.13;18.63;;;;;;;;;;5053395;28;20207;-66
2021/12/15 03:06:00;;;;;;;84.18;16.52;;;;;;;;;;5052873;28;20208;-66
2021/12/15 03:08:46;;;;;;;87.55;18.38;;;;;;;;;;5052883;28;20215;-65
2021/12/15 03:16:45;;;;;;;87.03;16.02;;;;;;;;;;5052813;28;20201;-66
2021/12/15 03:19:13;;;;;;;84.95;17.20;;;;;;;;;;5052759;28;20226;-66
2021/12/15 03:21:40;;;;;;;86.28;18.35;;;;;;;;;;5052714;28;20252;-66
2021/12/15 03:24:11;;;;;;;84.82;16.30;;;;;;;;;;5052658;28;20203;-65
2021/12/15 03:26:47;;;;;;;87.90;16.75;;;;;;;;;;5052583;28;20695;-66
2021/12/15 03:35:01;;;;;;;86.15;16.45;;;;;;;;;;5052433;28;20718;-66
2021/12/15 03:37:29;;;;;;;87.50;17.50;;;;;;;;;;5015502;28;1080264;-66
2021/12/15 03:39:58;;;;;;;83.50;17.87;;;;;;;;;;5053409;28;20229;-66
2021/12/15 03:42:29;;;;;;;84.15;18.85;;;;;;;;;;5053542;28;20538;-67
2021/12/15 03:44:57;;;;;;;84.38;17.27;;;;;;;;;;5053337;28;20207;-66
2021/12/15 03:47:29;;;;;;;80.35;15.68;;;;;;;;;;5052949;28;20648;-66
2021/12/15 03:49:57;;;;;;;87.30;18.07;;;;;;;;;;5053587;28;20222;-65
2021/12/15 03:52:25;;;;;;;90.60;18.10;;;;;;;;;;5053341;28;20456;-66
2021/12/15 03:54:52;;;;;;;86.27;17.60;;;;;;;;;;5053095;28;20490;-66
2021/12/15 03:57:21;;;;;;;82.90;16.73;;;;;;;;;;5052904;28;20448;-66
2021/12/15 03:59:49;;;;;;;86.57;16.58;;;;;;;;;;5052930;28;20476;-66
2021/12/15 04:02:18;;;;;;;85.95;17.67;;;;;;;;;;5053191;28;20314;-66
2021/12/15 04:04:46;;;;;;;87.07;17.73;;;;;;;;;;5053090;28;20210;-66
2021/12/15 04:07:14;;;;;;;84.68;17.30;;;;;;;;;;5051991;28;20208;-66
2021/12/15 04:09:41;;;;;;;87.07;19.17;;;;;;;;;;5052937;28;20249;-66
2021/12/15 04:12:09;;;;;;;88.70;16.97;;;;;;;;;;5052762;28;20217;-65
2021/12/15 04:14:44;;;;;;;85.88;16.95;;;;;;;;;;5052901;28;20561;-66
2021/12/15 04:17:26;;;;;;;88.20;18.88;;;;;;;;;;5052444;28;20216;-65
2021/12/15 04:19:54;;;;;;;85.55;16.75;;;;;;;;;;5052714;28;20229;-66
2021/12/15 04:22:21;;;;;;;90.65;17.92;;;;;;;;;;5052708;28;20206;-66
2021/12/15 04:24:48;;;;;;;86.40;17.77;;;;;;;;;;5052386;28;20216;-66
2021/12/15 04:27:15;;;;;;;86.07;16.30;;;;;;;;;;5052534;28;20213;-66
2021/12/15 04:29:44;;;;;;;90.88;17.85;;;;;;;;;;5052629;28;20466;-66
2021/12/15 04:32:19;;;;;;;93.20;17.67;;;;;;;;;;5052498;28;20210;-66
2021/12/15 04:34:46;;;;;;;88.88;18.00;;;;;;;;;;5052399;28;20235;-66
2021/12/15 04:37:13;;;;;;;89.63;18.65;;;;;;;;;;5051990;28;20215;-66
2021/12/15 04:39:40;;;;;;;88.10;17.10;;;;;;;;;;5052583;28;20230;-66
2021/12/15 04:42:07;;;;;;;80.93;16.25;;;;;;;;;;5052480;28;20211;-66
2021/12/15 04:44:35;;;;;;;91.75;18.90;;;;;;;;;;5052427;28;20200;-66
2021/12/15 04:47:05;;;;;;;93.43;18.95;;;;;;;;;;5052032;28;20206;-66
2021/12/15 04:49:36;;;;;;;87.80;18.67;;;;;;;;;;5051869;28;20711;-66
2021/12/15 04:52:03;;;;;;;95.45;19.85;;;;;;;;;;5052078;28;20202;-66
2021/12/15 04:54:31;;;;;;;85.10;17.80;;;;;;;;;;5052385;28;20232;-66
2021/12/15 04:56:59;;;;;;;99.85;19.98;;;;;;;;;;5052365;28;20592;-65
2021/12/15 04:59:26;;;;;;;85.45;16.67;;;;;;;;;;5051811;28;20221;-66
2021/12/15 05:01:53;;;;;;;95.00;20.17;;;;;;;;;;5051950;28;20670;-66
2021/12/15 05:04:20;;;;;;;96.63;20.77;;;;;;;;;;5051873;28;20457;-65
2021/12/15 05:06:49;;;;;;;96.93;17.10;;;;;;;;;;5052103;28;20207;-66
2021/12/15 05:09:16;;;;;;;90.53;18.20;;;;;;;;;;5051692;28;20618;-66
2021/12/15 05:11:44;;;;;;;89.32;18.40;;;;;;;;;;5052014;28;20224;-66
2021/12/15 05:14:12;;;;;;;90.63;18.45;;;;;;;;;;5051896;28;20210;-66
2021/12/15 05:16:39;;;;;;;93.10;18.40;;;;;;;;;;5051629;28;20229;-66
2021/12/15 05:19:06;;;;;;;88.05;17.48;;;;;;;;;;5051151;28;20816;-66
2021/12/15 05:21:34;;;;;;;85.85;17.15;;;;;;;;;;5051746;28;20217;-66
2021/12/15 05:24:11;;;;;;;83.28;17.40;;;;;;;;;;5051453;28;20294;-66
2021/12/15 05:26:39;;;;;;;93.10;19.58;;;;;;;;;;5051607;28;20221;-66
2021/12/15 05:29:06;;;;;;;88.57;17.00;;;;;;;;;;5051306;28;20687;-66
2021/12/15 05:31:33;;;;;;;87.78;17.85;;;;;;;;;;5051474;28;20459;-66
2021/12/15 05:34:02;;;;;;;93.05;18.40;;;;;;;;;;5051816;28;20232;-67
2021/12/15 05:36:29;;;;;;;88.82;17.33;;;;;;;;;;5051394;28;20222;-66
2021/12/15 05:38:56;;;;;;;89.57;17.45;;;;;;;;;;5051322;28;20333;-66
2021/12/15 05:41:25;;;;;;;89.70;17.50;;;;;;;;;;5051624;28;20202;-66
2021/12/15 05:43:54;;;;;;;92.80;17.33;;;;;;;;;;5051254;28;20286;-66
2021/12/15 05:46:21;;;;;;;87.18;17.27;;;;;;;;;;5051570;28;20449;-66
2021/12/15 05:48:48;;;;;;;90.55;19.45;;;;;;;;;;5051352;28;20686;-66
2021/12/15 05:51:15;;;;;;;86.50;16.77;;;;;;;;;;5051870;28;20310;-66
2021/12/15 05:53:43;;;;;;;92.05;19.30;;;;;;;;;;5051461;28;20235;-66
2021/12/15 05:56:12;;;;;;;85.75;18.65;;;;;;;;;;5051292;28;20221;-66
2021/12/15 05:58:41;;;;;;;93.93;18.90;;;;;;;;;;5051075;28;20265;-66
2021/12/15 06:01:08;;;;;;;91.57;18.15;;;;;;;;;;5051468;28;20230;-66
2021/12/15 06:03:35;;;;;;;90.45;18.85;;;;;;;;;;5051309;28;20214;-66
2021/12/15 06:06:02;;;;;;;88.95;17.65;;;;;;;;;;5051302;28;20206;-66
2021/12/15 06:08:29;;;;;;;90.05;18.80;;;;;;;;;;5050997;28;20704;-66
2021/12/15 06:10:57;;;;;;;90.53;18.75;;;;;;;;;;5051104;28;20226;-66
2021/12/15 06:13:27;;;;;;;88.03;19.33;;;;;;;;;;5051451;28;20209;-66
2021/12/15 06:15:57;;;;;;;85.47;15.75;;;;;;;;;;5051126;28;20226;-66
2021/12/15 06:18:24;;;;;;;84.43;16.17;;;;;;;;;;5051033;28;20209;-66
2021/12/15 06:20:52;;;;;;;91.90;17.45;;;;;;;;;;5051182;28;20605;-67
2021/12/15 06:23:22;;;;;;;84.38;16.95;;;;;;;;;;5051071;28;20207;-66
2021/12/15 06:25:50;;;;;;;93.00;17.95;;;;;;;;;;5050979;28;20261;-66
2021/12/15 06:28:18;;;;;;;90.68;17.83;;;;;;;;;;5050848;28;20203;-66
2021/12/15 06:30:46;;;;;;;85.50;16.90;;;;;;;;;;5053167;28;20225;-66
2021/12/15 06:33:16;;;;;;;89.88;18.33;;;;;;;;;;5054822;28;20581;-66
2021/12/15 06:35:51;;;;;;;86.72;17.75;;;;;;;;;;5054625;28;20240;-66
2021/12/15 06:38:19;;;;;;;85.85;18.13;;;;;;;;;;5054653;28;20572;-65
2021/12/15 06:40:46;;;;;;;94.80;18.13;;;;;;;;;;5054753;28;20226;-66
2021/12/15 06:43:13;;;;;;;83.85;15.73;;;;;;;;;;5054547;28;20206;-66
2021/12/15 06:45:54;;;;;;;82.05;16.50;;;;;;;;;;5054432;28;20225;-66
2021/12/15 06:59:22;;;;;;;85.57;18.60;;;;;;;;;;5054006;28;20706;-67
2021/12/15 07:01:50;;;;;;;82.90;16.27;;;;;;;;;;5054323;28;20210;-66
2021/12/15 07:04:19;;;;;;;89.05;17.10;;;;;;;;;;5054258;28;20210;-66
2021/12/15 07:06:46;;;;;;;90.28;18.70;;;;;;;;;;5054189;28;20203;-66
2021/12/15 07:09:14;;;;;;;86.78;17.30;;;;;;;;;;5053693;28;20225;-67
2021/12/15 07:11:41;;;;;;;83.93;16.10;;;;;;;;;;5054019;28;20202;-67
2021/12/15 07:14:08;;;;;;;88.47;15.77;;;;;;;;;;5053966;28;20214;-66
2021/12/15 07:16:39;;;;;;;81.68;14.05;;;;;;;;;;5053893;28;20511;-66
2021/12/15 07:19:10;;;;;;;83.50;16.20;;;;;;;;;;5053730;28;20578;-67
2021/12/15 07:21:41;;;;;;;84.13;16.88;;;;;;;;;;5053814;28;20210;-66
2021/12/15 07:24:08;;;;;;;81.43;15.23;;;;;;;;;;5054070;28;20615;-66
2021/12/15 07:26:36;;;;;;;82.88;15.75;;;;;;;;;;5053663;28;20444;-66
2021/12/15 07:29:03;;;;;;;82.33;17.17;;;;;;;;;;5053311;28;20679;-66
2021/12/15 07:31:30;;;;;;;84.78;15.80;;;;;;;;;;5053594;28;20450;-66
2021/12/15 07:33:57;;;;;;;92.20;16.50;;;;;;;;;;5053677;28;20213;-66
2021/12/15 07:36:25;;;;;;;79.00;15.13;;;;;;;;;;5053265;28;20493;-66
2021/12/15 07:38:55;;;;;;;79.10;14.73;;;;;;;;;;5053119;28;20215;-66
2021/12/15 07:41:28;;;;;;;85.33;16.40;;;;;;;;;;5052518;28;20302;-66
2021/12/15 07:43:58;;;;;;;80.60;15.23;;;;;;;;;;5053368;28;20491;-66
2021/12/15 07:46:26;;;;;;;79.97;14.93;;;;;;;;;;5053400;28;20495;-67
2021/12/15 07:48:54;;;;;;;80.60;14.30;;;;;;;;;;5052941;28;20230;-66
2021/12/15 07:51:21;;;;;;;81.80;15.50;;;;;;;;;;5053495;28;20456;-66
2021/12/15 07:53:48;;;;;;;80.10;14.30;;;;;;;;;;5053427;28;20207;-66
2021/12/15 07:56:17;;;;;;;84.43;15.23;;;;;;;;;;5053225;28;20232;-66
2021/12/15 07:58:45;;;;;;;89.00;16.87;;;;;;;;;;5052728;28;20209;-66
2021/12/15 08:01:12;;;;;;;78.87;14.43;;;;;;;;;;5053123;28;20572;-66
2021/12/15 08:03:41;;;;;;;78.73;14.60;;;;;;;;;;5052991;28;20453;-66
2021/12/15 08:06:08;;;;;;;80.07;14.20;;;;;;;;;;5053020;28;20448;-66
2021/12/15 08:08:36;;;;;;;76.88;13.88;;;;;;;;;;5052552;28;20204;-67
2021/12/15 08:11:03;;;;;;;76.38;13.43;;;;;;;;;;5053026;28;20237;-66
2021/12/15 08:13:32;;;;;;;80.00;14.98;;;;;;;;;;5052789;28;20201;-66
2021/12/15 08:16:00;;;;;;;87.68;15.30;;;;;;;;;;5052593;28;20237;-66
2021/12/15 08:18:27;;;;;;;80.57;16.55;;;;;;;;;;5052729;28;20217;-65
2021/12/15 08:20:55;;;;;;;81.50;15.55;;;;;;;;;;5052929;28;20234;-66
2021/12/15 08:23:22;;;;;;;80.03;13.75;;;;;;;;;;5052911;28;20590;-66
2021/12/15 08:25:49;;;;;;;81.97;15.63;;;;;;;;;;5052726;28;20611;-67
2021/12/15 08:28:17;;;;;;;79.93;15.30;;;;;;;;;;5052208;28;20457;-67
2021/12/15 08:30:48;;;;;;;76.75;14.45;;;;;;;;;;5052452;28;20238;-66
2021/12/15 08:33:18;;;;;;;80.70;14.37;;;;;;;;;;5055721;28;20317;-67
2021/12/15 08:35:47;;;;;;;78.70;14.52;;;;;;;;;;5071310;28;20491;-67
2021/12/15 08:38:14;;;;;;;78.00;13.63;;;;;;;;;;5072578;28;20214;-66
2021/12/15 08:40:43;;;;;;;74.78;13.85;;;;;;;;;;5069142;28;20983;-67
2021/12/15 08:43:11;;;;;;;74.65;13.95;;;;;;;;;;5071121;28;20245;-66
2021/12/15 08:45:39;;;;;;;72.80;12.43;;;;;;;;;;5071485;28;20203;-66
2021/12/15 08:48:08;;;;;;;72.55;12.13;;;;;;;;;;5070911;28;20449;-66
2021/12/15 08:50:37;;;;;;;72.97;13.38;;;;;;;;;;5071044;28;20718;-66
2021/12/15 08:53:05;;;;;;;74.27;13.27;;;;;;;;;;5071079;28;20305;-67
2021/12/15 08:55:33;;;;;;;74.03;13.43;;;;;;;;;;5071333;28;20452;-66
2021/12/15 08:58:04;;;;;;;76.60;13.88;;;;;;;;;;5071194;28;20452;-67
2021/12/15 09:00:32;;;;;;;78.20;14.05;;;;;;;;;;5071993;28;20230;-66
2021/12/15 09:02:59;;;;;;;71.77;12.37;;;;;;;;;;5072031;28;20601;-67
2021/12/15 09:05:27;;;;;;;72.10;11.80;;;;;;;;;;5071830;28;20447;-67
2021/12/15 09:07:56;;;;;;;75.30;13.00;;;;;;;;;;5071345;28;20457;-66
2021/12/15 09:10:24;;;;;;;72.60;11.60;;;;;;;;;;5071411;28;20481;-67
2021/12/15 09:12:51;;;;;;;76.07;13.53;;;;;;;;;;5060964;28;20448;-66
2021/12/15 09:15:19;;;;;;;72.00;10.68;;;;;;;;;;5052088;28;20454;-66
2021/12/15 09:17:46;;;;;;;69.57;11.10;;;;;;;;;;5051251;28;20227;-67
2021/12/15 09:20:17;;;;;;;72.37;12.13;;;;;;;;;;5051174;28;20473;-66
2021/12/15 09:22:46;;;;;;;71.25;11.18;;;;;;;;;;5051488;28;20830;-67
2021/12/15 09:25:13;;;;;;;71.80;10.90;;;;;;;;;;5051826;28;20590;-66
2021/12/15 09:27:42;;;;;;;71.73;11.80;;;;;;;;;;5051616;28;20537;-67
2021/12/15 09:30:11;;;;;;;70.50;11.38;;;;;;;;;;5051654;28;21017;-66
2021/12/15 09:32:39;;;;;;;70.15;11.02;;;;;;;;;;5051669;28;20688;-66
2021/12/15 09:35:07;;;;;;;70.47;10.63;;;;;;;;;;5051851;28;20206;-66
2021/12/15 09:37:34;;;;;;;68.63;10.03;;;;;;;;;;5049451;28;20572;-67
2021/12/15 09:40:05;;;;;;;69.50;10.93;;;;;;;;;;5051150;28;20474;-66
2021/12/15 09:42:36;;;;;;;74.47;11.20;;;;;;;;;;5051278;28;20539;-66
2021/12/15 09:45:20;;;;;;;68.13;9.10;;;;;;;;;;5049922;28;20496;-67
2021/12/15 09:48:01;;;;;;;67.50;11.03;;;;;;;;;;5050974;28;20453;-67
2021/12/15 10:04:23;;;;;;;70.45;10.57;;;;;;;;;;5051182;28;20794;-66
2021/12/15 10:07:15;;;;;;;70.20;10.40;;;;;;;;;;5055044;28;20204;-66
2021/12/15 10:17:22;;;;;;;68.50;9.80;;;;;;;;;;5055734;28;20537;-66
2021/12/15 10:18:12;;;;;;;67.50;10.40;;;;;;;;;;5054509;28;20524;-67
2021/12/15 10:20:40;;;;;;;68.70;10.97;;;;;;;;;;5054852;28;20602;-66
2021/12/15 10:23:10;;;;;;;72.60;11.70;;;;;;;;;;5055056;28;20541;-66
2021/12/15 10:25:42;;;;;;;68.60;10.90;;;;;;;;;;5054816;28;20450;-66
2021/12/15 10:28:12;;;;;;;67.97;9.20;;;;;;;;;;5054776;28;20492;-66
2021/12/15 10:30:40;;;;;;;69.23;10.50;;;;;;;;;;5054931;28;20544;-66
2021/12/15 10:33:10;;;;;;;68.30;9.87;;;;;;;;;;5054722;28;20957;-66
2021/12/15 10:35:39;;;;;;;68.77;8.57;;;;;;;;;;5054349;28;20532;-66
2021/12/15 10:38:15;;;;;;;65.97;9.10;;;;;;;;;;5054060;28;20490;-66
2021/12/15 10:40:45;;;;;;;69.70;10.87;;;;;;;;;;5054492;28;20472;-66
2021/12/15 10:43:13;;;;;;;67.63;10.25;;;;;;;;;;5054623;28;20458;-67
2021/12/15 10:45:41;;;;;;;62.00;6.13;;;;;;;;;;5054264;28;20208;-66
2021/12/15 10:48:14;;;;;;;63.80;6.90;;;;;;;;;;5052818;28;20447;-67
2021/12/15 10:50:42;;;;;;;63.00;6.80;;;;;;;;;;5054643;28;20470;-66
2021/12/15 10:53:09;;;;;;;65.20;8.40;;;;;;;;;;5054383;28;20867;-66
2021/12/15 10:55:38;;;;;;;65.68;8.73;;;;;;;;;;5054293;28;20452;-66
2021/12/15 10:58:32;;;;;;;61.75;6.45;;;;;;;;;;5054153;28;20231;-66
2021/12/15 11:00:59;;;;;;;65.37;8.50;;;;;;;;;;5054485;28;20227;-66
2021/12/15 11:03:33;;;;;;;66.18;8.88;;;;;;;;;;5053784;28;20474;-66
2021/12/15 11:06:00;;;;;;;67.53;9.10;;;;;;;;;;5053059;28;20217;-66
2021/12/15 11:08:27;;;;;;;65.53;8.13;;;;;;;;;;5052730;28;20459;-66
2021/12/15 11:10:54;;;;;;;66.73;7.43;;;;;;;;;;5053240;28;20845;-66
2021/12/15 11:13:25;;;;;;;61.00;6.60;;;;;;;;;;5052878;28;20468;-66
2021/12/15 11:15:53;;;;;;;62.00;6.30;;;;;;;;;;5053175;28;20453;-66
2021/12/15 11:18:22;;;;;;;62.70;6.97;;;;;;;;;;5052290;28;20872;-66
2021/12/15 11:20:50;;;;;;;62.90;6.67;;;;;;;;;;5068627;28;20492;-66
2021/12/15 11:23:17;;;;;;;62.58;5.85;;;;;;;;;;5072649;28;20450;-66
2021/12/15 11:25:46;;;;;;;61.58;6.18;;;;;;;;;;5072953;28;20211;-66
2021/12/15 11:28:16;;;;;;;64.90;6.10;;;;;;;;;;5072208;28;20208;-66
2021/12/15 11:30:46;;;;;;;60.95;5.32;;;;;;;;;;5073351;28;20473;-66
2021/12/15 11:33:16;;;;;;;61.67;6.23;;;;;;;;;;5073572;28;20689;-64
2021/12/15 11:35:45;;;;;;;60.90;5.30;;;;;;;;;;5073741;28;20450;-64
2021/12/15 11:38:14;;;;;;;60.47;5.20;;;;;;;;;;5072629;28;20469;-66
2021/12/15 11:40:44;;;;;;;61.23;5.63;;;;;;;;;;5073086;28;20984;-65
2021/12/15 11:43:26;;;;;;;62.35;6.25;;;;;;;;;;5073671;28;20544;-66
2021/12/15 11:45:55;;;;;;;61.13;5.45;;;;;;;;;;5065411;28;20212;-65
2021/12/15 11:48:24;;;;;;;61.28;6.03;;;;;;;;;;5052659;28;20210;-65
2021/12/15 11:50:52;;;;;;;60.80;5.93;;;;;;;;;;5053492;28;20241;-66
2021/12/15 11:53:24;;;;;;;61.07;6.27;;;;;;;;;;5053481;28;20541;-65
2021/12/15 11:55:51;;;;;;;60.25;5.20;;;;;;;;;;5053500;28;20491;-66
2021/12/15 11:58:30;;;;;;;65.27;6.30;;;;;;;;;;5052849;28;20226;-64
2021/12/15 12:00:58;;;;;;;60.73;4.80;;;;;;;;;;5052355;28;20473;-64
2021/12/15 12:03:25;;;;;;;61.23;5.30;;;;;;;;;;5053103;28;20448;-66
2021/12/15 12:05:52;;;;;;;60.85;5.10;;;;;;;;;;5052935;28;20457;-66
2021/12/15 12:08:20;;;;;;;61.87;6.00;;;;;;;;;;5052027;28;20689;-66
2021/12/15 12:10:49;;;;;;;61.63;5.20;;;;;;;;;;5052917;28;20476;-66
2021/12/15 12:13:21;;;;;;;60.92;6.85;;;;;;;;;;5052845;28;20237;-66
2021/12/15 12:15:50;;;;;;;60.60;5.47;;;;;;;;;;5052553;28;20785;-66
2021/12/15 12:18:20;;;;;;;62.00;6.47;;;;;;;;;;5063956;28;21035;-66
2021/12/15 12:20:48;;;;;;;61.50;5.40;;;;;;;;;;5072286;28;20486;-66
2021/12/15 12:23:16;;;;;;;60.70;5.87;;;;;;;;;;5072395;28;20463;-66
2021/12/15 12:25:46;;;;;;;60.28;4.90;;;;;;;;;;5071851;28;20458;-66
2021/12/15 12:28:14;;;;;;;61.27;6.17;;;;;;;;;;5070702;28;20237;-65
2021/12/15 12:30:42;;;;;;;61.07;5.40;;;;;;;;;;5072270;28;20473;-66
2021/12/15 12:33:10;;;;;;;60.30;4.80;;;;;;;;;;5072374;28;20448;-66
2021/12/15 12:35:41;;;;;;;60.35;5.07;;;;;;;;;;5072040;28;20445;-66
2021/12/15 12:38:11;;;;;;;60.57;5.37;;;;;;;;;;5072007;28;20221;-66
2021/12/15 12:40:39;;;;;;;60.77;5.40;;;;;;;;;;5071805;28;20477;-66
2021/12/15 12:43:17;;;;;;;60.90;5.30;;;;;;;;;;5072065;28;20445;-66
2021/12/15 12:45:53;;;;;;;59.50;4.70;;;;;;;;;;5071684;28;20470;-66
2021/12/15 12:48:42;;;;;;;59.90;4.60;;;;;;;;;;5071742;28;20450;-66
2021/12/15 12:59:33;;;;;;;59.47;3.83;;;;;;;;;;5071838;28;20444;-66
2021/12/15 13:02:04;;;;;;;60.60;4.77;;;;;;;;;;5071314;28;20991;-66
2021/12/15 13:04:42;;;;;;;60.43;4.80;;;;;;;;;;5071642;28;20455;-66
2021/12/15 13:07:11;;;;;;;59.90;4.77;;;;;;;;;;5071253;28;20528;-66
2021/12/15 13:09:46;;;;;;;61.20;5.57;;;;;;;;;;5071375;28;20543;-66
2021/12/15 13:12:24;;;;;;;61.40;5.27;;;;;;;;;;5071792;28;20443;-66
2021/12/15 13:14:52;;;;;;;60.35;5.18;;;;;;;;;;5071315;28;20452;-65
2021/12/15 13:17:23;;;;;;;60.93;5.70;;;;;;;;;;5071046;28;20317;-66
2021/12/15 13:19:51;;;;;;;61.00;5.20;;;;;;;;;;5071123;28;20473;-66
2021/12/15 13:22:30;;;;;;;59.45;4.90;;;;;;;;;;5068855;28;20827;-66
2021/12/15 13:30:31;;;;;;;60.15;4.85;;;;;;;;;;5071161;28;20220;-66
2021/12/15 13:33:05;;;;;;;60.55;4.90;;;;;;;;;;5071836;28;20297;-66
2021/12/15 13:35:37;;;;;;;60.13;4.70;;;;;;;;;;5071450;28;20202;-67
2021/12/15 13:38:05;;;;;;;60.17;4.50;;;;;;;;;;5071293;28;20574;-66
2021/12/15 13:40:53;;;;;;;61.58;4.60;;;;;;;;;;5074952;28;20552;-66
2021/12/15 13:43:34;;;;;;;58.80;3.83;;;;;;;;;;5075436;28;20213;-66
2021/12/15 13:46:01;;;;;;;58.73;4.07;;;;;;;;;;5075756;28;20535;-66
2021/12/15 13:48:43;;;;;;;60.80;4.77;;;;;;;;;;5075096;28;20526;-66
2021/12/15 13:51:10;;;;;;;62.78;6.03;;;;;;;;;;5074904;28;20460;-66
2021/12/15 13:53:39;;;;;;;61.13;5.30;;;;;;;;;;5073903;28;20211;-66
2021/12/15 13:56:06;;;;;;;61.67;5.70;;;;;;;;;;5075226;28;20205;-67
2021/12/15 13:58:33;;;;;;;60.80;5.05;;;;;;;;;;5075390;28;20483;-66
2021/12/15 14:01:02;;;;;;;59.67;4.77;;;;;;;;;;5074802;28;20257;-67
2021/12/15 14:03:31;;;;;;;59.00;4.18;;;;;;;;;;5074738;28;20454;-67
2021/12/15 14:06:01;;;;;;;60.33;5.22;;;;;;;;;;5075245;28;20582;-67
2021/12/15 14:08:29;;;;;;;59.60;4.90;;;;;;;;;;5074792;28;20206;-66
2021/12/15 14:11:01;;;;;;;60.07;4.80;;;;;;;;;;5075084;28;20498;-67
2021/12/15 14:13:52;;;;;;;60.50;5.10;;;;;;;;;;5075433;28;20809;-67
2021/12/15 14:16:30;;;;;;;64.97;5.45;;;;;;;;;;5058804;28;20493;-66
2021/12/15 14:18:58;;;;;;;60.77;5.40;;;;;;;;;;5074792;28;20236;-68
2021/12/15 14:21:25;;;;;;;59.85;5.00;;;;;;;;;;5075140;28;20539;-67
2021/12/15 14:23:54;;;;;;;61.00;5.90;;;;;;;;;;5074592;28;20218;-67
2021/12/15 14:26:24;;;;;;;60.70;5.10;;;;;;;;;;5074770;28;20452;-67
2021/12/15 14:28:54;;;;;;;60.37;5.13;;;;;;;;;;5074678;28;20202;-67
2021/12/15 14:31:23;;;;;;;60.28;5.13;;;;;;;;;;5074556;28;20454;-66
2021/12/15 14:33:52;;;;;;;61.30;5.80;;;;;;;;;;5074487;28;20218;-66
2021/12/15 14:36:21;;;;;;;60.63;5.22;;;;;;;;;;5074292;28;20467;-66
2021/12/15 14:38:49;;;;;;;60.33;5.13;;;;;;;;;;5073955;28;20227;-66
2021/12/15 14:41:18;;;;;;;63.17;7.20;;;;;;;;;;5074167;28;20236;-66
2021/12/15 14:43:50;;;;;;;61.97;6.30;;;;;;;;;;5074431;28;20540;-66
2021/12/15 14:46:19;;;;;;;63.92;6.82;;;;;;;;;;5074166;28;20535;-67
2021/12/15 14:48:46;;;;;;;62.00;6.90;;;;;;;;;;5074155;28;20302;-67
2021/12/15 14:51:21;;;;;;;61.07;5.93;;;;;;;;;;5073244;28;21051;-67
2021/12/15 14:53:48;;;;;;;60.20;5.55;;;;;;;;;;5074503;28;20447;-67
2021/12/15 14:56:16;;;;;;;60.38;5.13;;;;;;;;;;5074543;28;20299;-67
2021/12/15 14:58:43;;;;;;;60.05;5.10;;;;;;;;;;5074219;28;20237;-67
2021/12/15 15:01:14;;;;;;;59.92;4.95;;;;;;;;;;5074217;28;20236;-67
2021/12/15 15:03:56;;;;;;;61.25;5.28;;;;;;;;;;5073933;28;20599;-68
2021/12/15 15:06:25;;;;;;;60.50;4.90;;;;;;;;;;5074074;28;20217;-67
2021/12/15 15:08:52;;;;;;;60.97;5.40;;;;;;;;;;5073801;28;20527;-68
2021/12/15 15:11:24;;;;;;;61.80;5.80;;;;;;;;;;5073703;28;20532;-67
2021/12/15 15:13:52;;;;;;;60.60;5.07;;;;;;;;;;5074379;28;20209;-66
2021/12/15 15:16:24;;;;;;;60.95;5.47;;;;;;;;;;5074037;28;20527;-67
2021/12/15 15:18:51;;;;;;;61.27;5.50;;;;;;;;;;5073705;28;20311;-67
2021/12/15 15:21:19;;;;;;;61.07;5.97;;;;;;;;;;5073995;28;20443;-67
2021/12/15 15:23:47;;;;;;;61.40;5.60;;;;;;;;;;5073426;28;20455;-67
2021/12/15 15:26:15;;;;;;;61.10;5.60;;;;;;;;;;5073965;28;20956;-67
2021/12/15 15:28:45;;;;;;;64.20;7.33;;;;;;;;;;5073311;28;20445;-67
2021/12/15 15:31:13;;;;;;;61.60;6.50;;;;;;;;;;5073249;28;20563;-67
2021/12/15 15:33:42;;;;;;;62.47;6.90;;;;;;;;;;5073700;28;20535;-67
2021/12/15 15:36:12;;;;;;;61.90;6.40;;;;;;;;;;5073367;28;20552;-67
2021/12/15 15:38:41;;;;;;;61.63;6.10;;;;;;;;;;5073561;28;20313;-67
2021/12/15 15:41:09;;;;;;;60.20;5.40;;;;;;;;;;5073516;28;20495;-67